/* DATA DESCRIPTION:
Citation:	MEDAR Group (2006): Water temperature MBT profiles from cruise GN36198703119 [dataset]. National Centre for Marine Research, Greece, PANGAEA, https://doi.org/10.1594/PANGAEA.552174
Related to:	MEDAR Group (2002): MEDATLAS/2002 database. Mediterranean and Black Sea database of temperature salinity and bio-chemical parameters. Climatological Atlas. Institut Français de Recherche pour L´Exploitation de la Mer, (IFREMER) Edition & Instituto Nazionale di Oceanografia e di Geofisica Sperimentale (OGS), 4 CD-ROM
Further details:	Quality flag conversion MEDATLAS PANGAEA. hdl:10013/epic.26895.d001
Project(s):	Mediterranean Data Archaeology and Rescue (MEDAR/MEDATLAS)
Funding:	European Commission (EC) (URI: https://commission.europa.eu/index_en), grant/award no. ERBIC20-CT98-0103: Mediterranean Data Archaeology and Rescue
	European Commission (EC) (URI: https://commission.europa.eu/index_en), grant/award no. MAS3-CT98-0174: Mediterranean Data Archaeology and Rescue
Coverage:	MEDIAN LATITUDE: 37.651685 * MEDIAN LONGITUDE: 25.316249 * SOUTH-BOUND LATITUDE: 35.666700 * WEST-BOUND LONGITUDE: 24.333300 * NORTH-BOUND LATITUDE: 40.000000 * EAST-BOUND LONGITUDE: 26.000000
	DATE/TIME START: 1987-02-11T02:15:00 * DATE/TIME END: 1987-11-18T04:30:00
	MINIMUM DEPTH, water: 0.00 m * MAXIMUM DEPTH, water: 148.79 m
Event(s):	GN36198703119 * LATITUDE START: 35.666700 * LONGITUDE START: 24.333300 * LATITUDE END: 40.000000 * LONGITUDE END: 26.000000 * DATE/TIME START: 1987-02-11T02:15:00 * DATE/TIME END: 1987-11-18T04:30:00 * LOCATION: Aegean Sea * CAMPAIGN: GN36198 * METHOD/DEVICE: Oceanography (OCE)
Parameter(s):	DATE/TIME (Date/Time) * GEOCODE
	LATITUDE (Latitude) * GEOCODE
	LONGITUDE (Longitude) * GEOCODE
	DEPTH, water [m] (Depth water) * GEOCODE
	Pressure, water [dbar] (Press) * METHOD/DEVICE: MBT
	Temperature, water [°C] (Temp) * METHOD/DEVICE: MBT
	Sample code/label (Sample label) * COMMENT: MEDATLAS station reference
License:	Creative Commons Attribution 3.0 Unported (CC-BY-3.0) (URI: https://creativecommons.org/licenses/by/3.0/)
Size:	468 data points
*/
Date/Time	Latitude	Longitude	Depth water [m]	Press [dbar]	Temp [°C]	Sample label
1987-02-11T02:15	37.3333	26.0000	0.00	0	16.4	0247
1987-02-11T02:15	37.3333	26.0000	9.92	10	16.4	0247
1987-02-11T02:15	37.3333	26.0000	19.84	20	16.3	0247
1987-02-11T02:15	37.3333	26.0000	29.76	30	16.3	0247
1987-02-11T02:15	37.3333	26.0000	49.60	50	16.4	0247
1987-02-11T02:15	37.3333	26.0000	74.40	75	16.3	0247
1987-02-11T02:15	37.3333	26.0000	99.20	100	16.4	0247
1987-02-11T02:15	37.3333	26.0000	148.78	150	16.4	0247
1987-02-19T09:10	38.3333	25.3333	0.00	0	15.0	0249
1987-02-19T09:10	38.3333	25.3333	9.92	10	14.9	0249
1987-02-19T09:10	38.3333	25.3333	19.84	20	14.9	0249
1987-02-19T09:10	38.3333	25.3333	29.76	30	14.9	0249
1987-02-19T09:10	38.3333	25.3333	49.60	50	14.9	0249
1987-02-19T09:10	38.3333	25.3333	74.40	75	14.9	0249
1987-02-19T09:10	38.3333	25.3333	99.19	100	14.8	0249
1987-02-19T09:10	38.3333	25.3333	148.77	150	14.5	0249
1987-02-20T07:30	40.0000	24.6667	0.00	0	12.8	0226
1987-02-20T07:30	40.0000	24.6667	9.92	10	12.8	0226
1987-02-20T07:30	40.0000	24.6667	19.84	20	12.8	0226
1987-02-20T07:30	40.0000	24.6667	29.76	30	12.9	0226
1987-02-20T07:30	40.0000	24.6667	49.59	50	13.0	0226
1987-02-20T07:30	40.0000	24.6667	74.38	75	13.3	0226
1987-02-20T07:30	40.0000	24.6667	99.17	100	13.5	0226
1987-02-20T07:30	40.0000	24.6667	148.74	150	13.6	0226
1987-02-20T09:15	40.0000	24.6667	0.00	0	13.3	0227
1987-02-20T09:15	40.0000	24.6667	9.92	10	13.3	0227
1987-02-20T09:15	40.0000	24.6667	19.84	20	13.3	0227
1987-02-20T09:15	40.0000	24.6667	29.76	30	13.3	0227
1987-02-20T09:15	40.0000	24.6667	49.59	50	13.2	0227
1987-02-20T09:15	40.0000	24.6667	74.38	75	13.0	0227
1987-02-20T09:15	40.0000	24.6667	99.17	100	13.4	0227
1987-02-20T09:15	40.0000	24.6667	148.74	150	13.7	0227
1987-03-10T16:50	37.0000	24.6667	0.00	0	14.4	0238
1987-03-10T16:50	37.0000	24.6667	19.84	20	14.1	0238
1987-03-10T16:50	37.0000	24.6667	99.20	100	14.1	0238
1987-03-29T04:22	35.6667	24.3333	0.00	0	15.0	0228
1987-03-29T04:22	35.6667	24.3333	79.37	80	15.0	0228
1987-03-30T14:05	37.0000	24.6667	0.00	0	15.0	0237
1987-03-30T14:05	37.0000	24.6667	79.36	80	15.0	0237
1987-03-30T14:05	37.0000	24.6667	138.87	140	15.0	0237
1987-04-02T16:30	40.0000	24.6667	0.00	0	12.7	0225
1987-04-02T16:30	40.0000	24.6667	29.76	30	13.2	0225
1987-04-02T16:30	40.0000	24.6667	59.51	60	13.5	0225
1987-04-02T16:30	40.0000	24.6667	99.17	100	13.5	0225
1987-04-02T16:30	40.0000	24.6667	128.92	130	13.7	0225
1987-04-02T16:30	40.0000	24.6667	148.74	150	13.7	0225
1987-05-16T22:20	37.0000	24.6667	0.00	0	17.5	0239
1987-05-16T22:20	37.0000	24.6667	11.91	12	17.5	0239
1987-05-16T22:20	37.0000	24.6667	29.76	30	16.7	0239
1987-05-16T22:20	37.0000	24.6667	41.67	42	16.2	0239
1987-05-18T21:45	36.3333	25.6667	0.00	0	18.2	0232
1987-05-18T21:45	36.3333	25.6667	11.91	12	18.2	0232
1987-05-18T21:45	36.3333	25.6667	39.69	40	16.9	0232
1987-05-18T21:45	36.3333	25.6667	69.45	70	16.6	0232
1987-05-18T21:45	36.3333	25.6667	79.37	80	16.5	0232
1987-05-18T21:45	36.3333	25.6667	89.29	90	16.3	0232
1987-05-18T21:45	36.3333	25.6667	109.12	110	16.0	0232
1987-05-18T21:45	36.3333	25.6667	128.96	130	15.9	0232
1987-05-18T21:45	36.3333	25.6667	148.79	150	15.9	0232
1987-05-20T12:40	36.3333	25.6667	0.00	0	17.9	0233
1987-05-20T12:40	36.3333	25.6667	11.91	12	17.9	0233
1987-05-20T12:40	36.3333	25.6667	29.77	30	16.7	0233
1987-05-20T12:40	36.3333	25.6667	44.65	45	16.3	0233
1987-05-20T18:30	36.3333	25.6667	0.00	0	18.6	0234
1987-05-20T18:30	36.3333	25.6667	13.89	14	18.6	0234
1987-05-20T18:30	36.3333	25.6667	29.77	30	17.1	0234
1987-05-20T18:30	36.3333	25.6667	49.61	50	16.6	0234
1987-05-20T18:30	36.3333	25.6667	69.45	70	16.3	0234
1987-05-21T10:15	36.3333	25.6667	0.00	0	18.3	0235
1987-05-21T10:15	36.3333	25.6667	13.89	14	18.3	0235
1987-05-21T10:15	36.3333	25.6667	29.77	30	17.0	0235
1987-05-21T10:15	36.3333	25.6667	49.61	50	16.7	0235
1987-05-21T10:15	36.3333	25.6667	69.45	70	16.5	0235
1987-05-21T10:15	36.3333	25.6667	89.29	90	16.4	0235
1987-05-21T10:15	36.3333	25.6667	109.12	110	16.4	0235
1987-05-21T10:15	36.3333	25.6667	138.88	140	16.3	0235
1987-05-21T18:00	36.3333	25.6667	0.00	0	21.7	0236
1987-05-21T18:00	36.3333	25.6667	14.88	15	20.0	0236
1987-05-21T18:00	36.3333	25.6667	29.77	30	18.3	0236
1987-05-21T18:00	36.3333	25.6667	69.45	70	17.5	0236
1987-05-21T18:00	36.3333	25.6667	99.21	100	17.2	0236
1987-05-21T18:00	36.3333	25.6667	128.96	130	17.2	0236
1987-05-21T18:00	36.3333	25.6667	148.79	150	16.9	0236
1987-06-22T20:00	37.3333	26.0000	0.00	0	22.2	0241
1987-06-22T20:00	37.3333	26.0000	29.76	30	16.9	0241
1987-06-22T20:00	37.3333	26.0000	59.52	60	16.1	0241
1987-06-22T20:00	37.3333	26.0000	89.28	90	15.8	0241
1987-06-22T20:00	37.3333	26.0000	119.03	120	15.5	0241
1987-06-22T20:00	37.3333	26.0000	148.78	150	15.0	0241
1987-06-23T02:00	37.3333	26.0000	0.00	0	21.4	0242
1987-06-23T02:00	37.3333	26.0000	2.98	3	20.8	0242
1987-06-23T02:00	37.3333	26.0000	29.76	30	17.2	0242
1987-06-23T02:00	37.3333	26.0000	59.52	60	16.1	0242
1987-06-23T02:00	37.3333	26.0000	89.28	90	15.8	0242
1987-06-23T02:00	37.3333	26.0000	119.03	120	15.3	0242
1987-06-23T02:00	37.3333	26.0000	148.78	150	14.7	0242
1987-06-23T14:00	37.3333	26.0000	0.00	0	21.7	0240
1987-06-23T14:00	37.3333	26.0000	29.76	30	16.7	0240
1987-06-23T14:00	37.3333	26.0000	59.52	60	16.4	0240
1987-06-23T14:00	37.3333	26.0000	89.28	90	16.1	0240
1987-06-23T14:00	37.3333	26.0000	119.03	120	15.8	0240
1987-06-23T14:00	37.3333	26.0000	148.78	150	15.8	0240
1987-06-23T20:18	37.3333	26.0000	0.00	0	21.4	0243
1987-06-23T20:18	37.3333	26.0000	13.89	14	21.4	0243
1987-06-23T20:18	37.3333	26.0000	29.76	30	17.8	0243
1987-06-23T20:18	37.3333	26.0000	59.52	60	16.6	0243
1987-06-23T20:18	37.3333	26.0000	69.44	70	16.5	0243
1987-06-24T02:00	37.3333	26.0000	0.00	0	21.1	0244
1987-06-24T02:00	37.3333	26.0000	29.76	30	16.4	0244
1987-06-24T02:00	37.3333	26.0000	59.52	60	15.8	0244
1987-06-24T02:00	37.3333	26.0000	89.28	90	15.5	0244
1987-06-24T02:00	37.3333	26.0000	119.03	120	15.0	0244
1987-06-24T02:00	37.3333	26.0000	148.78	150	14.4	0244
1987-06-24T04:00	37.3333	26.0000	0.00	0	21.2	0245
1987-06-24T04:00	37.3333	26.0000	13.89	14	21.2	0245
1987-06-24T04:00	37.3333	26.0000	29.76	30	17.8	0245
1987-06-24T04:00	37.3333	26.0000	59.52	60	16.6	0245
1987-06-24T04:00	37.3333	26.0000	69.44	70	16.4	0245
1987-06-24T14:25	37.3333	26.0000	0.00	0	21.7	0246
1987-06-24T14:25	37.3333	26.0000	13.89	14	21.7	0246
1987-06-24T14:25	37.3333	26.0000	29.76	30	18.4	0246
1987-06-24T14:25	37.3333	26.0000	59.52	60	16.5	0246
1987-06-24T14:25	37.3333	26.0000	69.44	70	16.4	0246
1987-10-14T06:50	40.0000	24.6667	0.00	0	18.8	0224
1987-10-14T06:50	40.0000	24.6667	14.88	15	18.5	0224
1987-10-14T06:50	40.0000	24.6667	29.76	30	18.3	0224
1987-10-14T06:50	40.0000	24.6667	44.63	45	18.0	0224
1987-10-14T12:00	39.0000	25.3333	0.00	0	18.3	0251
1987-10-14T12:00	39.0000	25.3333	32.74	33	18.8	0251
1987-10-14T12:00	39.0000	25.3333	75.38	76	16.9	0251
1987-10-16T14:11	39.3333	24.3333	0.00	0	19.6	0250
1987-10-16T14:11	39.3333	24.3333	24.80	25	19.0	0250
1987-10-16T14:11	39.3333	24.3333	39.68	40	18.7	0250
1987-10-16T14:11	39.3333	24.3333	49.60	50	18.5	0250
1987-10-16T14:11	39.3333	24.3333	69.43	70	18.0	0250
1987-10-16T14:11	39.3333	24.3333	80.34	81	16.7	0250
1987-10-16T14:11	39.3333	24.3333	99.18	100	16.0	0250
1987-10-16T14:11	39.3333	24.3333	109.10	110	15.8	0250
1987-10-16T14:11	39.3333	24.3333	119.01	120	15.6	0250
1987-10-29T16:00	38.3333	24.6667	0.00	0	17.5	0248
1987-10-29T16:00	38.3333	24.6667	29.76	30	19.9	0248
1987-10-29T16:00	38.3333	24.6667	75.39	76	19.1	0248
1987-11-04T22:10	36.3333	24.3333	0.00	0	20.0	0229
1987-11-04T22:10	36.3333	24.3333	39.69	40	20.0	0229
1987-11-04T22:10	36.3333	24.3333	64.49	65	18.5	0229
1987-11-04T22:10	36.3333	24.3333	79.37	80	16.6	0229
1987-11-04T22:10	36.3333	24.3333	119.04	120	16.6	0229
1987-11-05T04:40	36.3333	24.3333	0.00	0	19.4	0230
1987-11-05T04:40	36.3333	24.3333	75.40	76	19.4	0230
1987-11-05T04:40	36.3333	24.3333	90.28	91	16.1	0230
1987-11-05T04:40	36.3333	24.3333	128.96	130	15.3	0230
1987-11-05T04:40	36.3333	24.3333	148.79	150	15.0	0230
1987-11-18T04:30	36.3333	25.6667	0.00	0	18.9	0231
1987-11-18T04:30	36.3333	25.6667	49.61	50	17.9	0231
1987-11-18T04:30	36.3333	25.6667	59.53	60	16.0	0231
1987-11-18T04:30	36.3333	25.6667	109.12	110	15.9	0231
